sensor_id;sensor_type;location;lat;lon;timestamp;P1;durP1;ratioP1;P2;durP2;ratioP2
62106;SDS011;48087;32.600;-97.100;2023-02-22T00:00:36;20;;;17;;
62106;SDS011;48087;32.600;-97.100;2023-02-22T00:23:00;19;;;17;;
62106;SDS011;48087;32.600;-97.100;2023-02-22T00:45:25;18;;;16;;
62106;SDS011;48087;32.600;-97.100;2023-02-22T01:07:48;20;;;17;;
62106;SDS011;48087;32.600;-97.100;2023-02-22T01:30:13;13;;;13;;
62106;SDS011;48087;32.600;-97.100;2023-02-22T01:52:34;15;;;14;;
62106;SDS011;48087;32.600;-97.100;2023-02-22T02:15:15;13;;;13;;
62106;SDS011;48087;32.600;-97.100;2023-02-22T02:59:41;21;;;18;;
62106;SDS011;48087;32.600;-97.100;2023-02-22T03:22:05;23;;;20;;
62106;SDS011;48087;32.600;-97.100;2023-02-22T03:44:25;29;;;25;;
62106;SDS011;48087;32.600;-97.100;2023-02-22T04:06:47;32;;;28;;
62106;SDS011;48087;32.600;-97.100;2023-02-22T04:29:08;38;;;35;;
62106;SDS011;48087;32.600;-97.100;2023-02-22T04:51:30;41;;;38;;
62106;SDS011;48087;32.600;-97.100;2023-02-22T05:13:51;42;;;40;;
62106;SDS011;48087;32.600;-97.100;2023-02-22T05:36:12;53;;;46;;
62106;SDS011;48087;32.600;-97.100;2023-02-22T05:58:33;44;;;43;;
62106;SDS011;48087;32.600;-97.100;2023-02-22T06:20:55;38;;;35;;
62106;SDS011;48087;32.600;-97.100;2023-02-22T06:43:17;45;;;43;;
62106;SDS011;48087;32.600;-97.100;2023-02-22T07:05:38;44;;;43;;
62106;SDS011;48087;32.600;-97.100;2023-02-22T07:28:00;43;;;41;;
62106;SDS011;48087;32.600;-97.100;2023-02-22T07:50:21;41;;;38;;
62106;SDS011;48087;32.600;-97.100;2023-02-22T08:12:41;41;;;38;;
62106;SDS011;48087;32.600;-97.100;2023-02-22T08:57:23;36;;;31;;
62106;SDS011;48087;32.600;-97.100;2023-02-22T09:19:44;33;;;28;;
62106;SDS011;48087;32.600;-97.100;2023-02-22T10:04:30;35;;;30;;
62106;SDS011;48087;32.600;-97.100;2023-02-22T10:26:48;31;;;27;;
62106;SDS011;48087;32.600;-97.100;2023-02-22T10:49:09;34;;;29;;
62106;SDS011;48087;32.600;-97.100;2023-02-22T11:11:30;31;;;27;;
62106;SDS011;48087;32.600;-97.100;2023-02-22T11:33:52;37;;;33;;
62106;SDS011;48087;32.600;-97.100;2023-02-22T11:35:15;44;;;43;;
62106;SDS011;48087;32.600;-97.100;2023-02-22T12:19:43;5;;;5;;
62106;SDS011;48087;32.600;-97.100;2023-02-22T12:42:02;7;;;7;;
62106;SDS011;48087;32.600;-97.100;2023-02-22T13:04:21;8;;;8;;
62106;SDS011;48087;32.600;-97.100;2023-02-22T13:26:40;8;;;8;;
62106;SDS011;48087;32.600;-97.100;2023-02-22T14:11:47;8;;;8;;
62106;SDS011;48087;32.600;-97.100;2023-02-22T14:33:52;6;;;6;;
62106;SDS011;48087;32.600;-97.100;2023-02-22T14:55:54;7;;;7;;
62106;SDS011;48087;32.600;-97.100;2023-02-22T15:18:15;4;;;4;;
62106;SDS011;48087;32.600;-97.100;2023-02-22T15:40:31;4;;;4;;
62106;SDS011;48087;32.600;-97.100;2023-02-22T16:25:22;3;;;3;;
62106;SDS011;48087;32.600;-97.100;2023-02-22T16:47:36;2;;;2;;
62106;SDS011;48087;32.600;-97.100;2023-02-22T17:10:00;2;;;2;;
62106;SDS011;48087;32.600;-97.100;2023-02-22T17:32:25;2;;;2;;
62106;SDS011;48087;32.600;-97.100;2023-02-22T17:54:51;3;;;3;;
62106;SDS011;48087;32.600;-97.100;2023-02-22T18:17:17;2;;;2;;
62106;SDS011;48087;32.600;-97.100;2023-02-22T18:39:43;2;;;2;;
62106;SDS011;48087;32.600;-97.100;2023-02-22T19:02:11;1;;;1;;
62106;SDS011;48087;32.600;-97.100;2023-02-22T19:24:38;3;;;3;;
62106;SDS011;48087;32.600;-97.100;2023-02-22T19:47:06;1;;;1;;
62106;SDS011;48087;32.600;-97.100;2023-02-22T20:09:33;2;;;2;;
62106;SDS011;48087;32.600;-97.100;2023-02-22T20:32:00;1;;;1;;
62106;SDS011;48087;32.600;-97.100;2023-02-22T20:54:26;1;;;1;;
62106;SDS011;48087;32.600;-97.100;2023-02-22T21:16:53;1;;;1;;
62106;SDS011;48087;32.600;-97.100;2023-02-22T21:39:19;1;;;1;;
62106;SDS011;48087;32.600;-97.100;2023-02-22T22:01:45;3;;;3;;
62106;SDS011;48087;32.600;-97.100;2023-02-22T22:24:10;1;;;1;;
62106;SDS011;48087;32.600;-97.100;2023-02-22T23:09:01;2;;;2;;
62106;SDS011;48087;32.600;-97.100;2023-02-22T23:31:24;3;;;3;;
62106;SDS011;48087;32.600;-97.100;2023-02-22T23:53:49;1;;;1;;
